sensor_id;sensor_type;location;lat;lon;timestamp;temperature;humidity
11965;DHT22;6042;41.326;19.826;2022-12-18T00:00:22;12.60;99.90
11965;DHT22;6042;41.326;19.826;2022-12-18T00:02:52;12.60;99.90
11965;DHT22;6042;41.326;19.826;2022-12-18T00:05:21;12.70;99.90
11965;DHT22;6042;41.326;19.826;2022-12-18T00:07:51;12.70;99.90
11965;DHT22;6042;41.326;19.826;2022-12-18T00:10:20;12.70;99.90
11965;DHT22;6042;41.326;19.826;2022-12-18T00:12:50;12.80;99.90
11965;DHT22;6042;41.326;19.826;2022-12-18T00:15:19;12.70;99.90
11965;DHT22;6042;41.326;19.826;2022-12-18T00:17:47;12.60;99.90
11965;DHT22;6042;41.326;19.826;2022-12-18T00:20:16;12.60;99.90
11965;DHT22;6042;41.326;19.826;2022-12-18T00:22:54;12.60;99.90
11965;DHT22;6042;41.326;19.826;2022-12-18T00:25:22;12.60;99.90
11965;DHT22;6042;41.326;19.826;2022-12-18T00:27:51;12.50;99.90
11965;DHT22;6042;41.326;19.826;2022-12-18T00:30:20;12.50;99.90
11965;DHT22;6042;41.326;19.826;2022-12-18T00:32:48;12.50;99.90
11965;DHT22;6042;41.326;19.826;2022-12-18T00:35:17;12.50;99.90
11965;DHT22;6042;41.326;19.826;2022-12-18T00:37:46;12.50;99.90
11965;DHT22;6042;41.326;19.826;2022-12-18T00:40:16;12.60;99.90
11965;DHT22;6042;41.326;19.826;2022-12-18T00:42:45;12.60;99.90
11965;DHT22;6042;41.326;19.826;2022-12-18T00:45:27;12.60;99.90
11965;DHT22;6042;41.326;19.826;2022-12-18T00:47:56;12.60;99.90
11965;DHT22;6042;41.326;19.826;2022-12-18T00:50:25;12.60;99.90
11965;DHT22;6042;41.326;19.826;2022-12-18T00:52:54;12.60;99.90
11965;DHT22;6042;41.326;19.826;2022-12-18T00:55:24;12.60;99.90
11965;DHT22;6042;41.326;19.826;2022-12-18T00:57:53;12.60;99.90
11965;DHT22;6042;41.326;19.826;2022-12-18T01:00:21;12.60;99.90
11965;DHT22;6042;41.326;19.826;2022-12-18T01:02:50;12.60;99.90
11965;DHT22;6042;41.326;19.826;2022-12-18T01:05:19;12.50;99.90
11965;DHT22;6042;41.326;19.826;2022-12-18T01:07:48;12.50;99.90
11965;DHT22;6042;41.326;19.826;2022-12-18T01:10:17;12.50;99.90
11965;DHT22;6042;41.326;19.826;2022-12-18T01:12:47;12.50;99.90
11965;DHT22;6042;41.326;19.826;2022-12-18T01:15:18;12.50;99.90
11965;DHT22;6042;41.326;19.826;2022-12-18T01:17:47;12.50;99.90
11965;DHT22;6042;41.326;19.826;2022-12-18T01:20:16;12.50;99.90
11965;DHT22;6042;41.326;19.826;2022-12-18T01:22:45;12.50;99.90
11965;DHT22;6042;41.326;19.826;2022-12-18T01:25:14;12.50;99.90
11965;DHT22;6042;41.326;19.826;2022-12-18T01:27:43;12.50;99.90
11965;DHT22;6042;41.326;19.826;2022-12-18T01:30:13;12.50;99.90
11965;DHT22;6042;41.326;19.826;2022-12-18T01:32:42;12.40;99.90
11965;DHT22;6042;41.326;19.826;2022-12-18T01:35:11;12.40;99.90
11965;DHT22;6042;41.326;19.826;2022-12-18T01:37:40;12.50;99.90
11965;DHT22;6042;41.326;19.826;2022-12-18T01:40:09;12.50;99.90
11965;DHT22;6042;41.326;19.826;2022-12-18T01:42:38;12.50;99.90
11965;DHT22;6042;41.326;19.826;2022-12-18T01:45:25;12.60;99.90
11965;DHT22;6042;41.326;19.826;2022-12-18T01:47:56;12.50;99.90
11965;DHT22;6042;41.326;19.826;2022-12-18T01:50:30;12.60;99.90
11965;DHT22;6042;41.326;19.826;2022-12-18T01:53:05;12.50;99.90
11965;DHT22;6042;41.326;19.826;2022-12-18T01:55:38;12.50;99.90
11965;DHT22;6042;41.326;19.826;2022-12-18T01:58:09;12.40;99.90
11965;DHT22;6042;41.326;19.826;2022-12-18T02:00:40;12.40;99.90
11965;DHT22;6042;41.326;19.826;2022-12-18T02:03:09;12.40;99.90
11965;DHT22;6042;41.326;19.826;2022-12-18T02:05:44;12.30;99.90
11965;DHT22;6042;41.326;19.826;2022-12-18T02:08:20;12.30;99.90
11965;DHT22;6042;41.326;19.826;2022-12-18T02:10:57;12.30;99.90
11965;DHT22;6042;41.326;19.826;2022-12-18T02:13:37;12.30;99.90
11965;DHT22;6042;41.326;19.826;2022-12-18T02:16:16;12.30;99.90
11965;DHT22;6042;41.326;19.826;2022-12-18T02:18:53;12.40;99.90
11965;DHT22;6042;41.326;19.826;2022-12-18T02:21:28;12.30;99.90
11965;DHT22;6042;41.326;19.826;2022-12-18T02:24:16;12.40;99.90
11965;DHT22;6042;41.326;19.826;2022-12-18T02:26:49;12.40;99.90
11965;DHT22;6042;41.326;19.826;2022-12-18T02:29:25;12.40;99.90
11965;DHT22;6042;41.326;19.826;2022-12-18T02:32:01;12.40;99.90
11965;DHT22;6042;41.326;19.826;2022-12-18T02:34:33;12.40;99.90
11965;DHT22;6042;41.326;19.826;2022-12-18T02:37:05;12.40;99.90
11965;DHT22;6042;41.326;19.826;2022-12-18T02:39:38;12.40;99.90
11965;DHT22;6042;41.326;19.826;2022-12-18T02:42:12;12.30;99.90
11965;DHT22;6042;41.326;19.826;2022-12-18T02:44:43;12.40;99.90
11965;DHT22;6042;41.326;19.826;2022-12-18T02:47:17;12.40;99.90
11965;DHT22;6042;41.326;19.826;2022-12-18T02:49:53;12.40;99.90
11965;DHT22;6042;41.326;19.826;2022-12-18T02:52:31;12.40;99.90
11965;DHT22;6042;41.326;19.826;2022-12-18T02:55:16;12.40;99.90
11965;DHT22;6042;41.326;19.826;2022-12-18T02:57:58;12.40;99.90
11965;DHT22;6042;41.326;19.826;2022-12-18T03:00:39;12.40;99.90
11965;DHT22;6042;41.326;19.826;2022-12-18T03:03:13;12.40;99.90
11965;DHT22;6042;41.326;19.826;2022-12-18T03:05:47;12.40;99.90
11965;DHT22;6042;41.326;19.826;2022-12-18T03:08:20;12.30;99.90
11965;DHT22;6042;41.326;19.826;2022-12-18T03:10:54;12.30;99.90
11965;DHT22;6042;41.326;19.826;2022-12-18T03:13:28;12.30;99.90
11965;DHT22;6042;41.326;19.826;2022-12-18T03:16:00;12.30;99.90
11965;DHT22;6042;41.326;19.826;2022-12-18T03:18:31;12.30;99.90
11965;DHT22;6042;41.326;19.826;2022-12-18T03:21:05;12.40;99.90
11965;DHT22;6042;41.326;19.826;2022-12-18T03:23:40;12.30;99.90
11965;DHT22;6042;41.326;19.826;2022-12-18T03:26:16;12.30;99.90
11965;DHT22;6042;41.326;19.826;2022-12-18T03:28:51;12.20;99.90
11965;DHT22;6042;41.326;19.826;2022-12-18T03:31:23;12.20;99.90
11965;DHT22;6042;41.326;19.826;2022-12-18T03:33:54;12.20;99.90
11965;DHT22;6042;41.326;19.826;2022-12-18T03:36:31;12.10;99.90
11965;DHT22;6042;41.326;19.826;2022-12-18T03:39:01;12.10;99.90
11965;DHT22;6042;41.326;19.826;2022-12-18T03:41:37;12.10;99.90
11965;DHT22;6042;41.326;19.826;2022-12-18T03:44:29;12.10;99.90
11965;DHT22;6042;41.326;19.826;2022-12-18T03:47:06;12.20;99.90
11965;DHT22;6042;41.326;19.826;2022-12-18T03:49:39;12.30;99.90
11965;DHT22;6042;41.326;19.826;2022-12-18T03:52:16;12.20;99.90
11965;DHT22;6042;41.326;19.826;2022-12-18T03:54:47;12.20;99.90
11965;DHT22;6042;41.326;19.826;2022-12-18T03:57:20;12.10;99.90
11965;DHT22;6042;41.326;19.826;2022-12-18T03:59:57;12.10;99.90
11965;DHT22;6042;41.326;19.826;2022-12-18T04:02:43;12.10;99.90
11965;DHT22;6042;41.326;19.826;2022-12-18T04:05:20;12.10;99.90
11965;DHT22;6042;41.326;19.826;2022-12-18T04:07:51;12.00;99.90
11965;DHT22;6042;41.326;19.826;2022-12-18T04:10:22;12.00;99.90
11965;DHT22;6042;41.326;19.826;2022-12-18T04:12:51;12.10;99.90
11965;DHT22;6042;41.326;19.826;2022-12-18T04:15:26;12.10;99.90
11965;DHT22;6042;41.326;19.826;2022-12-18T04:17:55;12.10;99.90
11965;DHT22;6042;41.326;19.826;2022-12-18T04:20:34;12.00;99.90
11965;DHT22;6042;41.326;19.826;2022-12-18T04:23:03;12.00;99.90
11965;DHT22;6042;41.326;19.826;2022-12-18T04:25:33;12.00;99.90
11965;DHT22;6042;41.326;19.826;2022-12-18T04:28:08;12.10;99.90
11965;DHT22;6042;41.326;19.826;2022-12-18T04:30:39;12.10;99.90
11965;DHT22;6042;41.326;19.826;2022-12-18T04:33:10;12.10;99.90
11965;DHT22;6042;41.326;19.826;2022-12-18T04:35:39;12.10;99.90
11965;DHT22;6042;41.326;19.826;2022-12-18T04:38:09;12.00;99.90
11965;DHT22;6042;41.326;19.826;2022-12-18T04:40:38;12.00;99.90
11965;DHT22;6042;41.326;19.826;2022-12-18T04:43:15;12.00;99.90
11965;DHT22;6042;41.326;19.826;2022-12-18T04:45:47;12.00;99.90
11965;DHT22;6042;41.326;19.826;2022-12-18T04:48:16;11.90;99.90
11965;DHT22;6042;41.326;19.826;2022-12-18T04:50:45;11.90;99.90
11965;DHT22;6042;41.326;19.826;2022-12-18T04:53:14;11.80;99.90
11965;DHT22;6042;41.326;19.826;2022-12-18T04:55:43;11.70;99.90
11965;DHT22;6042;41.326;19.826;2022-12-18T04:58:11;11.70;99.90
11965;DHT22;6042;41.326;19.826;2022-12-18T05:00:40;11.80;99.90
11965;DHT22;6042;41.326;19.826;2022-12-18T05:03:10;11.70;99.90
11965;DHT22;6042;41.326;19.826;2022-12-18T05:05:40;11.80;99.90
11965;DHT22;6042;41.326;19.826;2022-12-18T05:08:09;11.80;99.90
11965;DHT22;6042;41.326;19.826;2022-12-18T05:10:37;11.80;99.90
11965;DHT22;6042;41.326;19.826;2022-12-18T05:13:07;11.70;99.90
11965;DHT22;6042;41.326;19.826;2022-12-18T05:15:36;11.70;99.90
11965;DHT22;6042;41.326;19.826;2022-12-18T05:18:05;11.60;99.90
11965;DHT22;6042;41.326;19.826;2022-12-18T05:20:35;11.60;99.90
11965;DHT22;6042;41.326;19.826;2022-12-18T05:23:04;11.50;99.90
11965;DHT22;6042;41.326;19.826;2022-12-18T05:25:32;11.50;99.90
11965;DHT22;6042;41.326;19.826;2022-12-18T05:28:01;11.50;99.90
11965;DHT22;6042;41.326;19.826;2022-12-18T05:30:30;11.40;99.90
11965;DHT22;6042;41.326;19.826;2022-12-18T05:32:58;11.50;99.90
11965;DHT22;6042;41.326;19.826;2022-12-18T05:35:27;11.50;99.90
11965;DHT22;6042;41.326;19.826;2022-12-18T05:37:59;11.50;99.90
11965;DHT22;6042;41.326;19.826;2022-12-18T05:40:28;11.60;99.90
11965;DHT22;6042;41.326;19.826;2022-12-18T05:42:57;11.60;99.90
11965;DHT22;6042;41.326;19.826;2022-12-18T05:45:27;11.60;99.90
11965;DHT22;6042;41.326;19.826;2022-12-18T05:47:55;11.60;99.90
11965;DHT22;6042;41.326;19.826;2022-12-18T05:50:24;11.60;99.90
11965;DHT22;6042;41.326;19.826;2022-12-18T05:52:53;11.50;99.90
11965;DHT22;6042;41.326;19.826;2022-12-18T05:55:23;11.50;99.90
11965;DHT22;6042;41.326;19.826;2022-12-18T05:57:53;11.40;99.90
11965;DHT22;6042;41.326;19.826;2022-12-18T06:00:21;11.40;99.90
11965;DHT22;6042;41.326;19.826;2022-12-18T06:02:50;11.40;99.90
11965;DHT22;6042;41.326;19.826;2022-12-18T06:05:19;11.40;99.90
11965;DHT22;6042;41.326;19.826;2022-12-18T06:07:48;11.40;99.90
11965;DHT22;6042;41.326;19.826;2022-12-18T06:10:16;11.40;99.90
11965;DHT22;6042;41.326;19.826;2022-12-18T06:12:47;11.40;99.90
11965;DHT22;6042;41.326;19.826;2022-12-18T06:15:16;11.50;99.90
11965;DHT22;6042;41.326;19.826;2022-12-18T06:17:45;11.50;99.90
11965;DHT22;6042;41.326;19.826;2022-12-18T06:20:13;11.50;99.90
11965;DHT22;6042;41.326;19.826;2022-12-18T06:22:43;11.50;99.90
11965;DHT22;6042;41.326;19.826;2022-12-18T06:25:12;11.50;99.90
11965;DHT22;6042;41.326;19.826;2022-12-18T06:27:42;11.40;99.90
11965;DHT22;6042;41.326;19.826;2022-12-18T06:30:13;11.50;99.90
11965;DHT22;6042;41.326;19.826;2022-12-18T06:32:42;11.60;99.90
11965;DHT22;6042;41.326;19.826;2022-12-18T06:35:14;11.50;99.90
11965;DHT22;6042;41.326;19.826;2022-12-18T06:37:43;11.40;99.90
11965;DHT22;6042;41.326;19.826;2022-12-18T06:40:12;11.40;99.90
11965;DHT22;6042;41.326;19.826;2022-12-18T06:42:40;11.50;99.90
11965;DHT22;6042;41.326;19.826;2022-12-18T06:45:09;11.40;99.90
11965;DHT22;6042;41.326;19.826;2022-12-18T06:47:40;11.30;99.90
11965;DHT22;6042;41.326;19.826;2022-12-18T06:50:09;11.40;99.90
11965;DHT22;6042;41.326;19.826;2022-12-18T06:52:38;11.50;99.90
11965;DHT22;6042;41.326;19.826;2022-12-18T06:55:08;11.60;99.90
11965;DHT22;6042;41.326;19.826;2022-12-18T06:57:37;11.60;99.90
11965;DHT22;6042;41.326;19.826;2022-12-18T07:00:08;11.70;99.90
11965;DHT22;6042;41.326;19.826;2022-12-18T07:02:37;11.70;99.90
11965;DHT22;6042;41.326;19.826;2022-12-18T07:05:07;11.60;99.90
11965;DHT22;6042;41.326;19.826;2022-12-18T07:07:37;11.60;99.90
11965;DHT22;6042;41.326;19.826;2022-12-18T07:10:06;11.70;99.90
11965;DHT22;6042;41.326;19.826;2022-12-18T07:12:35;11.80;99.90
11965;DHT22;6042;41.326;19.826;2022-12-18T07:15:04;11.90;99.90
11965;DHT22;6042;41.326;19.826;2022-12-18T07:17:34;11.90;99.90
11965;DHT22;6042;41.326;19.826;2022-12-18T07:20:03;11.90;99.90
11965;DHT22;6042;41.326;19.826;2022-12-18T07:22:34;12.10;99.90
11965;DHT22;6042;41.326;19.826;2022-12-18T07:25:03;12.20;99.90
11965;DHT22;6042;41.326;19.826;2022-12-18T07:27:31;12.30;99.90
11965;DHT22;6042;41.326;19.826;2022-12-18T07:30:00;12.40;99.90
11965;DHT22;6042;41.326;19.826;2022-12-18T07:32:30;12.50;99.90
11965;DHT22;6042;41.326;19.826;2022-12-18T07:34:59;12.60;99.90
11965;DHT22;6042;41.326;19.826;2022-12-18T07:37:27;12.80;99.90
11965;DHT22;6042;41.326;19.826;2022-12-18T07:39:57;12.90;99.90
11965;DHT22;6042;41.326;19.826;2022-12-18T07:42:26;13.00;99.90
11965;DHT22;6042;41.326;19.826;2022-12-18T07:45:03;13.00;99.90
11965;DHT22;6042;41.326;19.826;2022-12-18T07:47:34;13.10;99.90
11965;DHT22;6042;41.326;19.826;2022-12-18T07:50:04;13.20;99.90
11965;DHT22;6042;41.326;19.826;2022-12-18T07:52:33;13.30;99.90
11965;DHT22;6042;41.326;19.826;2022-12-18T07:55:05;13.40;99.90
11965;DHT22;6042;41.326;19.826;2022-12-18T07:57:34;13.60;99.90
11965;DHT22;6042;41.326;19.826;2022-12-18T08:00:23;13.70;99.90
11965;DHT22;6042;41.326;19.826;2022-12-18T08:02:52;13.80;99.90
11965;DHT22;6042;41.326;19.826;2022-12-18T08:05:21;13.90;99.90
11965;DHT22;6042;41.326;19.826;2022-12-18T08:07:50;14.00;99.90
11965;DHT22;6042;41.326;19.826;2022-12-18T08:10:21;14.10;99.90
11965;DHT22;6042;41.326;19.826;2022-12-18T08:12:50;14.10;99.90
11965;DHT22;6042;41.326;19.826;2022-12-18T08:15:19;14.20;99.90
11965;DHT22;6042;41.326;19.826;2022-12-18T08:17:47;14.20;99.90
11965;DHT22;6042;41.326;19.826;2022-12-18T08:20:16;14.30;99.90
11965;DHT22;6042;41.326;19.826;2022-12-18T08:22:45;14.50;99.90
11965;DHT22;6042;41.326;19.826;2022-12-18T08:25:14;14.60;99.90
11965;DHT22;6042;41.326;19.826;2022-12-18T08:27:44;14.70;99.90
11965;DHT22;6042;41.326;19.826;2022-12-18T08:30:13;14.80;99.90
11965;DHT22;6042;41.326;19.826;2022-12-18T08:32:42;15.00;99.90
11965;DHT22;6042;41.326;19.826;2022-12-18T08:35:11;15.00;99.90
11965;DHT22;6042;41.326;19.826;2022-12-18T08:37:44;15.10;99.90
11965;DHT22;6042;41.326;19.826;2022-12-18T08:40:13;15.10;99.90
11965;DHT22;6042;41.326;19.826;2022-12-18T08:42:44;15.10;99.90
11965;DHT22;6042;41.326;19.826;2022-12-18T08:45:30;15.10;99.90
11965;DHT22;6042;41.326;19.826;2022-12-18T08:47:59;15.00;99.90
11965;DHT22;6042;41.326;19.826;2022-12-18T08:50:28;14.90;99.90
11965;DHT22;6042;41.326;19.826;2022-12-18T08:53:01;15.00;99.90
11965;DHT22;6042;41.326;19.826;2022-12-18T08:55:30;15.20;99.90
11965;DHT22;6042;41.326;19.826;2022-12-18T08:58:00;15.20;99.90
11965;DHT22;6042;41.326;19.826;2022-12-18T09:00:29;15.30;99.90
11965;DHT22;6042;41.326;19.826;2022-12-18T09:02:57;15.40;99.90
11965;DHT22;6042;41.326;19.826;2022-12-18T09:05:27;15.40;99.90
11965;DHT22;6042;41.326;19.826;2022-12-18T09:07:56;15.40;99.90
11965;DHT22;6042;41.326;19.826;2022-12-18T09:10:24;15.40;99.90
11965;DHT22;6042;41.326;19.826;2022-12-18T09:12:53;15.40;99.90
11965;DHT22;6042;41.326;19.826;2022-12-18T09:15:24;15.50;99.90
11965;DHT22;6042;41.326;19.826;2022-12-18T09:17:53;15.50;99.90
11965;DHT22;6042;41.326;19.826;2022-12-18T09:20:22;15.60;99.90
11965;DHT22;6042;41.326;19.826;2022-12-18T09:22:51;15.60;99.90
11965;DHT22;6042;41.326;19.826;2022-12-18T09:25:20;15.70;99.90
11965;DHT22;6042;41.326;19.826;2022-12-18T09:27:49;15.80;99.90
11965;DHT22;6042;41.326;19.826;2022-12-18T09:30:18;15.80;99.90
11965;DHT22;6042;41.326;19.826;2022-12-18T09:32:48;15.80;99.90
11965;DHT22;6042;41.326;19.826;2022-12-18T09:35:17;15.80;99.90
11965;DHT22;6042;41.326;19.826;2022-12-18T09:37:46;15.70;99.90
11965;DHT22;6042;41.326;19.826;2022-12-18T09:40:15;15.70;99.90
11965;DHT22;6042;41.326;19.826;2022-12-18T09:42:48;15.70;99.90
11965;DHT22;6042;41.326;19.826;2022-12-18T09:45:18;15.70;99.90
11965;DHT22;6042;41.326;19.826;2022-12-18T09:47:49;15.70;99.90
11965;DHT22;6042;41.326;19.826;2022-12-18T09:50:26;15.80;99.90
11965;DHT22;6042;41.326;19.826;2022-12-18T09:52:59;15.80;99.90
11965;DHT22;6042;41.326;19.826;2022-12-18T09:55:34;15.90;99.90
11965;DHT22;6042;41.326;19.826;2022-12-18T09:58:07;15.90;99.90
11965;DHT22;6042;41.326;19.826;2022-12-18T10:00:40;15.80;99.90
11965;DHT22;6042;41.326;19.826;2022-12-18T10:03:12;15.90;99.90
11965;DHT22;6042;41.326;19.826;2022-12-18T10:05:51;15.80;99.90
11965;DHT22;6042;41.326;19.826;2022-12-18T10:08:27;15.80;99.90
11965;DHT22;6042;41.326;19.826;2022-12-18T10:11:09;15.90;99.90
11965;DHT22;6042;41.326;19.826;2022-12-18T10:13:43;15.90;99.90
11965;DHT22;6042;41.326;19.826;2022-12-18T10:16:17;15.90;99.90
11965;DHT22;6042;41.326;19.826;2022-12-18T10:19:03;16.00;99.90
11965;DHT22;6042;41.326;19.826;2022-12-18T10:21:41;16.10;99.90
11965;DHT22;6042;41.326;19.826;2022-12-18T10:24:19;16.10;99.90
11965;DHT22;6042;41.326;19.826;2022-12-18T10:26:49;16.20;99.90
11965;DHT22;6042;41.326;19.826;2022-12-18T10:29:18;16.30;99.90
11965;DHT22;6042;41.326;19.826;2022-12-18T10:31:47;16.40;99.90
11965;DHT22;6042;41.326;19.826;2022-12-18T10:34:18;16.50;99.90
11965;DHT22;6042;41.326;19.826;2022-12-18T10:36:47;16.50;99.90
11965;DHT22;6042;41.326;19.826;2022-12-18T10:39:17;16.50;99.90
11965;DHT22;6042;41.326;19.826;2022-12-18T10:41:46;16.50;99.90
11965;DHT22;6042;41.326;19.826;2022-12-18T10:44:17;16.70;99.90
11965;DHT22;6042;41.326;19.826;2022-12-18T10:46:49;16.90;99.90
11965;DHT22;6042;41.326;19.826;2022-12-18T10:49:23;17.00;99.90
11965;DHT22;6042;41.326;19.826;2022-12-18T10:52:05;17.20;99.90
11965;DHT22;6042;41.326;19.826;2022-12-18T10:54:35;17.70;99.90
11965;DHT22;6042;41.326;19.826;2022-12-18T10:57:15;18.20;99.90
11965;DHT22;6042;41.326;19.826;2022-12-18T10:59:52;18.40;99.90
11965;DHT22;6042;41.326;19.826;2022-12-18T11:02:27;18.70;99.90
11965;DHT22;6042;41.326;19.826;2022-12-18T11:04:58;19.10;99.90
11965;DHT22;6042;41.326;19.826;2022-12-18T11:07:47;19.20;99.90
11965;DHT22;6042;41.326;19.826;2022-12-18T11:10:17;19.20;99.90
11965;DHT22;6042;41.326;19.826;2022-12-18T11:12:47;19.00;99.90
11965;DHT22;6042;41.326;19.826;2022-12-18T11:15:20;19.20;99.90
11965;DHT22;6042;41.326;19.826;2022-12-18T11:17:51;19.20;99.90
11965;DHT22;6042;41.326;19.826;2022-12-18T11:20:27;19.20;99.90
11965;DHT22;6042;41.326;19.826;2022-12-18T11:22:59;19.20;99.90
11965;DHT22;6042;41.326;19.826;2022-12-18T11:25:30;19.10;99.90
11965;DHT22;6042;41.326;19.826;2022-12-18T11:28:03;18.90;99.90
11965;DHT22;6042;41.326;19.826;2022-12-18T11:30:34;18.40;99.90
11965;DHT22;6042;41.326;19.826;2022-12-18T11:33:05;18.50;99.90
11965;DHT22;6042;41.326;19.826;2022-12-18T11:35:44;18.80;99.90
11965;DHT22;6042;41.326;19.826;2022-12-18T11:38:20;18.80;99.90
11965;DHT22;6042;41.326;19.826;2022-12-18T11:40:56;18.80;99.90
11965;DHT22;6042;41.326;19.826;2022-12-18T11:43:29;19.00;99.90
11965;DHT22;6042;41.326;19.826;2022-12-18T11:46:04;19.20;99.90
11965;DHT22;6042;41.326;19.826;2022-12-18T11:48:37;19.30;99.90
11965;DHT22;6042;41.326;19.826;2022-12-18T11:51:25;19.30;99.90
11965;DHT22;6042;41.326;19.826;2022-12-18T11:53:59;19.30;99.90
11965;DHT22;6042;41.326;19.826;2022-12-18T11:56:43;19.30;99.90
11965;DHT22;6042;41.326;19.826;2022-12-18T11:59:20;19.10;99.90
11965;DHT22;6042;41.326;19.826;2022-12-18T12:01:57;19.40;99.90
11965;DHT22;6042;41.326;19.826;2022-12-18T12:04:55;20.20;99.90
11965;DHT22;6042;41.326;19.826;2022-12-18T12:07:37;20.30;99.90
11965;DHT22;6042;41.326;19.826;2022-12-18T12:10:18;21.50;99.90
11965;DHT22;6042;41.326;19.826;2022-12-18T12:13:10;23.00;99.90
11965;DHT22;6042;41.326;19.826;2022-12-18T12:15:48;24.10;99.90
11965;DHT22;6042;41.326;19.826;2022-12-18T12:18:28;24.50;99.90
11965;DHT22;6042;41.326;19.826;2022-12-18T12:21:05;24.50;99.60
11965;DHT22;6042;41.326;19.826;2022-12-18T12:23:43;24.40;99.00
11965;DHT22;6042;41.326;19.826;2022-12-18T12:26:21;24.50;98.70
11965;DHT22;6042;41.326;19.826;2022-12-18T12:29:00;23.50;99.90
11965;DHT22;6042;41.326;19.826;2022-12-18T12:34:52;25.20;97.80
11965;DHT22;6042;41.326;19.826;2022-12-18T12:37:38;25.80;97.10
11965;DHT22;6042;41.326;19.826;2022-12-18T12:40:17;25.90;96.00
11965;DHT22;6042;41.326;19.826;2022-12-18T12:43:21;24.50;98.30
11965;DHT22;6042;41.326;19.826;2022-12-18T12:45:53;25.90;96.20
11965;DHT22;6042;41.326;19.826;2022-12-18T12:48:38;25.20;96.50
11965;DHT22;6042;41.326;19.826;2022-12-18T12:51:15;23.20;98.70
11965;DHT22;6042;41.326;19.826;2022-12-18T12:53:45;21.70;99.90
11965;DHT22;6042;41.326;19.826;2022-12-18T12:56:17;20.60;99.90
11965;DHT22;6042;41.326;19.826;2022-12-18T12:58:57;19.70;99.90
11965;DHT22;6042;41.326;19.826;2022-12-18T13:01:32;19.00;99.90
11965;DHT22;6042;41.326;19.826;2022-12-18T13:04:18;18.60;99.90
11965;DHT22;6042;41.326;19.826;2022-12-18T13:06:54;18.20;99.90
11965;DHT22;6042;41.326;19.826;2022-12-18T13:09:30;17.90;99.90
11965;DHT22;6042;41.326;19.826;2022-12-18T13:12:05;17.80;99.90
11965;DHT22;6042;41.326;19.826;2022-12-18T13:15:13;17.60;99.90
11965;DHT22;6042;41.326;19.826;2022-12-18T13:17:48;17.50;99.90
11965;DHT22;6042;41.326;19.826;2022-12-18T13:20:17;17.40;99.90
11965;DHT22;6042;41.326;19.826;2022-12-18T13:22:48;17.20;99.90
11965;DHT22;6042;41.326;19.826;2022-12-18T13:25:33;17.20;99.90
11965;DHT22;6042;41.326;19.826;2022-12-18T13:28:12;17.20;99.90
11965;DHT22;6042;41.326;19.826;2022-12-18T13:30:50;17.20;99.90
11965;DHT22;6042;41.326;19.826;2022-12-18T13:33:45;17.20;99.90
11965;DHT22;6042;41.326;19.826;2022-12-18T13:36:34;17.20;99.90
11965;DHT22;6042;41.326;19.826;2022-12-18T13:39:24;17.00;99.90
11965;DHT22;6042;41.326;19.826;2022-12-18T13:45:49;17.00;99.90
11965;DHT22;6042;41.326;19.826;2022-12-18T13:48:23;17.00;99.90
11965;DHT22;6042;41.326;19.826;2022-12-18T13:50:56;17.10;99.90
11965;DHT22;6042;41.326;19.826;2022-12-18T13:53:29;17.00;99.90
11965;DHT22;6042;41.326;19.826;2022-12-18T13:55:58;16.90;99.90
11965;DHT22;6042;41.326;19.826;2022-12-18T13:58:27;16.90;99.90
11965;DHT22;6042;41.326;19.826;2022-12-18T14:00:57;16.80;99.90
11965;DHT22;6042;41.326;19.826;2022-12-18T14:03:29;16.90;99.90
11965;DHT22;6042;41.326;19.826;2022-12-18T14:06:07;16.80;99.90
11965;DHT22;6042;41.326;19.826;2022-12-18T14:08:41;16.80;99.90
11965;DHT22;6042;41.326;19.826;2022-12-18T14:11:20;16.80;99.90
11965;DHT22;6042;41.326;19.826;2022-12-18T14:13:53;16.80;99.90
11965;DHT22;6042;41.326;19.826;2022-12-18T14:16:23;16.70;99.90
11965;DHT22;6042;41.326;19.826;2022-12-18T14:18:55;16.70;99.90
11965;DHT22;6042;41.326;19.826;2022-12-18T14:21:45;16.60;99.90
11965;DHT22;6042;41.326;19.826;2022-12-18T14:24:16;16.80;99.90
11965;DHT22;6042;41.326;19.826;2022-12-18T14:26:46;16.80;99.90
11965;DHT22;6042;41.326;19.826;2022-12-18T14:29:22;16.60;99.90
11965;DHT22;6042;41.326;19.826;2022-12-18T14:32:11;16.60;99.90
11965;DHT22;6042;41.326;19.826;2022-12-18T14:34:51;16.50;99.90
11965;DHT22;6042;41.326;19.826;2022-12-18T14:37:22;16.50;99.90
11965;DHT22;6042;41.326;19.826;2022-12-18T14:39:56;16.40;99.90
11965;DHT22;6042;41.326;19.826;2022-12-18T14:42:26;16.40;99.90
11965;DHT22;6042;41.326;19.826;2022-12-18T14:45:34;16.40;99.90
11965;DHT22;6042;41.326;19.826;2022-12-18T14:48:15;16.40;99.90
11965;DHT22;6042;41.326;19.826;2022-12-18T14:50:58;16.20;99.90
11965;DHT22;6042;41.326;19.826;2022-12-18T14:53:33;16.20;99.90
11965;DHT22;6042;41.326;19.826;2022-12-18T14:56:13;16.30;99.90
11965;DHT22;6042;41.326;19.826;2022-12-18T14:58:47;16.20;99.90
11965;DHT22;6042;41.326;19.826;2022-12-18T15:01:22;16.10;99.90
11965;DHT22;6042;41.326;19.826;2022-12-18T15:03:55;16.00;99.90
11965;DHT22;6042;41.326;19.826;2022-12-18T15:06:28;15.90;99.90
11965;DHT22;6042;41.326;19.826;2022-12-18T15:08:58;15.90;99.90
11965;DHT22;6042;41.326;19.826;2022-12-18T15:11:32;15.80;99.90
11965;DHT22;6042;41.326;19.826;2022-12-18T15:14:24;15.80;99.90
11965;DHT22;6042;41.326;19.826;2022-12-18T15:16:59;15.80;99.90
11965;DHT22;6042;41.326;19.826;2022-12-18T15:19:34;15.90;99.90
11965;DHT22;6042;41.326;19.826;2022-12-18T15:22:11;15.80;99.90
11965;DHT22;6042;41.326;19.826;2022-12-18T15:24:44;15.80;99.90
11965;DHT22;6042;41.326;19.826;2022-12-18T15:27:29;15.70;99.90
11965;DHT22;6042;41.326;19.826;2022-12-18T15:30:23;15.60;99.90
11965;DHT22;6042;41.326;19.826;2022-12-18T15:33:17;15.60;99.90
11965;DHT22;6042;41.326;19.826;2022-12-18T15:35:57;15.70;99.90
11965;DHT22;6042;41.326;19.826;2022-12-18T15:38:27;15.70;99.90
11965;DHT22;6042;41.326;19.826;2022-12-18T15:40:55;15.60;99.90
11965;DHT22;6042;41.326;19.826;2022-12-18T15:43:26;15.50;99.90
11965;DHT22;6042;41.326;19.826;2022-12-18T15:46:11;15.40;99.90
11965;DHT22;6042;41.326;19.826;2022-12-18T15:48:42;15.40;99.90
11965;DHT22;6042;41.326;19.826;2022-12-18T15:51:17;15.30;99.90
11965;DHT22;6042;41.326;19.826;2022-12-18T15:53:49;15.30;99.90
11965;DHT22;6042;41.326;19.826;2022-12-18T15:56:18;15.20;99.90
11965;DHT22;6042;41.326;19.826;2022-12-18T15:59:09;15.10;99.90
11965;DHT22;6042;41.326;19.826;2022-12-18T16:01:39;15.00;99.90
11965;DHT22;6042;41.326;19.826;2022-12-18T16:04:10;15.00;99.90
11965;DHT22;6042;41.326;19.826;2022-12-18T16:06:41;15.00;99.90
11965;DHT22;6042;41.326;19.826;2022-12-18T16:09:30;14.80;99.90
11965;DHT22;6042;41.326;19.826;2022-12-18T16:11:59;14.70;99.90
11965;DHT22;6042;41.326;19.826;2022-12-18T16:14:29;14.60;99.90